Time;durP1;ratioP1;P1;durP2;ratioP2;P2;SDS_P1;SDS_P2;PMS_P1;PMS_P2;Temp;Humidity;BMP_temperature;BMP_pressure;BME280_temperature;BME280_humidity;BME280_pressure;Samples;Min_cycle;Max_cycle;Signal;HPM_P1;HPM_P2
2023/04/05 00:00:23;;;;;;;;;13.60;12.40;;;;;5.13;37.77;99297.13;6033651;23;97486;-65
2023/04/05 00:03:27;;;;;;;;;13.00;12.80;;;;;5.07;38.09;99294.34;5973400;29;96634;-65
2023/04/05 00:06:31;;;;;;;;;14.00;14.00;;;;;4.93;38.28;99273.75;5976142;29;96342;-65
2023/04/05 00:09:36;;;;;;;;;21.40;19.00;;;;;5.04;38.19;99290.19;5973275;29;99153;-66
2023/04/05 00:12:39;;;;;;;;;15.00;14.00;;;;;5.03;38.17;99285.88;5959324;29;96633;-66
2023/04/05 00:15:43;;;;;;;;;19.00;17.00;;;;;5.01;38.35;99281.69;5995406;29;96854;-66
2023/04/05 00:18:50;;;;;;;;;18.60;17.40;;;;;4.99;38.58;99281.84;5978857;29;98754;-66
2023/04/05 00:21:53;;;;;;;;;13.20;13.00;;;;;5.00;38.89;99269.34;5976041;29;98541;-66
2023/04/05 00:24:58;;;;;;;;;17.00;16.00;;;;;4.98;38.63;99264.19;5975207;29;97343;-65
2023/04/05 00:28:02;;;;;;;;;17.00;15.00;;;;;4.94;38.65;99270.88;5975462;29;98398;-65
2023/04/05 00:31:06;;;;;;;;;15.20;14.20;;;;;4.79;38.95;99259.28;5973381;29;96971;-65
2023/04/05 00:34:11;;;;;;;;;15.00;14.60;;;;;4.78;38.94;99269.16;5973574;29;96872;-65
2023/04/05 00:37:14;;;;;;;;;16.80;16.00;;;;;4.71;39.30;99265.50;5957326;29;97246;-65
2023/04/05 00:40:19;;;;;;;;;18.40;15.40;;;;;4.69;39.42;99261.34;5971831;29;98578;-65
2023/04/05 00:43:23;;;;;;;;;17.00;16.00;;;;;4.67;39.16;99250.84;5974097;29;96279;-65
2023/04/05 00:46:28;;;;;;;;;18.00;17.25;;;;;4.65;39.55;99268.88;5972182;29;96723;-65
2023/04/05 00:49:33;;;;;;;;;13.50;13.00;;;;;4.62;39.77;99260.38;5983432;29;96372;-65
2023/04/05 00:52:36;;;;;;;;;13.60;12.60;;;;;4.57;39.72;99258.22;5974236;29;96367;-65
2023/04/05 00:55:41;;;;;;;;;11.00;11.00;;;;;4.53;40.01;99254.25;5957331;29;96646;-65
2023/04/05 00:58:47;;;;;;;;;19.00;18.00;;;;;4.47;40.48;99252.28;5956271;29;99643;-65
2023/04/05 01:01:57;;;;;;;;;16.00;14.00;;;;;4.39;40.67;99254.16;5972849;29;96892;-65
2023/04/05 01:05:08;;;;;;;;;16.20;15.20;;;;;4.26;41.17;99255.53;5962945;29;98449;-66
2023/04/05 01:08:18;;;;;;;;;14.50;14.25;;;;;4.07;41.15;99228.41;5963923;29;96444;-66
2023/04/05 01:11:25;;;;;;;;;16.00;15.00;;;;;4.15;41.68;99252.41;5971945;29;98718;-65
2023/04/05 01:14:28;;;;;;;;;18.50;16.25;;;;;4.09;41.54;99253.91;5963117;29;97430;-65
2023/04/05 01:17:35;;;;;;;;;20.60;19.60;;;;;4.06;41.77;99248.91;5972188;29;96616;-66
2023/04/05 01:20:45;;;;;;;;;18.40;17.40;;;;;4.07;41.91;99247.06;5973160;29;96866;-66
2023/04/05 01:24:00;;;;;;;;;15.50;15.25;;;;;4.10;41.70;99252.94;5969770;29;96839;-66
2023/04/05 01:27:10;;;;;;;;;16.00;15.00;;;;;4.08;41.64;99254.09;5973563;29;96248;-65
2023/04/05 01:30:20;;;;;;;;;18.00;16.00;;;;;4.10;41.89;99252.09;5969988;29;96916;-66
2023/04/05 01:33:32;;;;;;;;;19.40;19.40;;;;;4.02;42.17;99241.41;5958974;29;96902;-66
2023/04/05 01:36:40;;;;;;;;;14.25;13.25;;;;;4.01;42.19;99248.59;5971879;29;96477;-65
2023/04/05 01:39:46;;;;;;;;;17.00;15.00;;;;;4.01;42.06;99247.78;5972106;29;96438;-65
2023/04/05 01:42:49;;;;;;;;;22.00;20.60;;;;;3.99;42.22;99245.28;5964501;29;96302;-65
2023/04/05 01:45:54;;;;;;;;;19.60;18.60;;;;;3.98;41.88;99256.13;5970493;29;97306;-65
2023/04/05 01:48:57;;;;;;;;;23.00;22.00;;;;;3.96;41.85;99248.28;5975561;29;99086;-66
2023/04/05 01:52:01;;;;;;;;;16.00;15.20;;;;;3.83;41.98;99239.97;5971662;29;96493;-66
2023/04/05 01:55:05;;;;;;;;;22.00;20.00;;;;;3.88;41.92;99245.63;5964698;29;98387;-66
2023/04/05 01:58:08;;;;;;;;;22.80;21.00;;;;;3.94;42.33;99242.28;5969382;29;98357;-65
2023/04/05 02:01:14;;;;;;;;;29.40;28.20;;;;;3.97;41.88;99238.44;5974128;29;96668;-66
2023/04/05 02:04:17;;;;;;;;;17.60;16.40;;;;;3.97;41.73;99239.28;5959483;29;98260;-66
2023/04/05 02:07:21;;;;;;;;;17.00;16.50;;;;;3.95;41.86;99227.97;5974650;29;96673;-66
2023/04/05 02:10:24;;;;;;;;;20.25;19.00;;;;;3.95;41.62;99238.63;5976333;29;96641;-66
2023/04/05 02:13:29;;;;;;;;;21.00;19.00;;;;;3.91;41.86;99232.78;5974822;29;98861;-66
2023/04/05 02:16:34;;;;;;;;;20.80;19.40;;;;;3.83;42.02;99237.31;5990835;29;96343;-66
2023/04/05 02:19:40;;;;;;;;;21.60;20.60;;;;;3.82;41.96;99236.47;5946768;29;96640;-66
2023/04/05 02:22:44;;;;;;;;;19.00;16.50;;;;;3.79;42.02;99234.16;5959715;29;98940;-66
2023/04/05 02:25:48;;;;;;;;;19.00;18.75;;;;;3.81;42.06;99236.66;5958359;29;96708;-66
2023/04/05 02:28:51;;;;;;;;;22.20;18.60;;;;;3.83;41.87;99231.97;5975416;29;96391;-67
2023/04/05 02:31:58;;;;;;;;;20.75;20.75;;;;;3.79;41.90;99222.66;5978083;29;96368;-67
2023/04/05 02:35:01;;;;;;;;;20.00;19.00;;;;;3.81;41.52;99226.81;5978982;29;96238;-67
2023/04/05 02:38:05;;;;;;;;;21.40;20.40;;;;;3.82;41.42;99222.31;5988881;29;96604;-67
2023/04/05 02:41:10;;;;;;;;;21.80;21.60;;;;;3.85;41.60;99228.16;5975702;29;96565;-67
2023/04/05 02:44:13;;;;;;;;;23.00;22.25;;;;;3.86;41.31;99224.47;5977370;29;96265;-66
2023/04/05 02:47:20;;;;;;;;;22.00;20.00;;;;;3.84;41.46;99222.97;5963842;29;96302;-66
2023/04/05 02:50:29;;;;;;;;;21.50;19.50;;;;;3.83;41.42;99222.13;5976943;29;96909;-67
2023/04/05 02:53:33;;;;;;;;;22.25;20.50;;;;;3.85;41.28;99225.47;5975218;29;96696;-67
2023/04/05 02:56:40;;;;;;;;;22.00;19.80;;;;;3.83;41.28;99213.31;5974679;29;96887;-67
2023/04/05 02:59:48;;;;;;;;;24.60;24.00;;;;;3.80;41.74;99221.66;5975330;29;96522;-67
2023/04/05 03:02:53;;;;;;;;;23.00;22.00;;;;;3.76;41.72;99223.81;5986794;29;97110;-67
2023/04/05 03:06:08;;;;;;;;;25.00;22.00;;;;;3.78;41.63;99213.81;5986057;29;96354;-66
2023/04/05 03:09:18;;;;;;;;;24.00;23.00;;;;;3.77;41.69;99221.97;5972739;29;96596;-67
2023/04/05 03:12:26;;;;;;;;;24.00;21.00;;;;;3.74;41.80;99217.84;5974677;29;96614;-67
2023/04/05 03:15:32;;;;;;;;;20.20;20.20;;;;;3.62;41.81;99219.19;5978563;29;96374;-67
2023/04/05 03:18:42;;;;;;;;;22.25;20.00;;;;;3.67;41.65;99219.50;5952914;29;99593;-67
2023/04/05 03:21:46;;;;;;;;;24.20;22.20;;;;;3.65;41.68;99221.53;5975969;29;97645;-67
2023/04/05 03:25:10;;;;;;;;;27.00;25.00;;;;;3.72;41.58;99221.66;5975447;29;97112;-67
2023/04/05 03:28:19;;;;;;;;;24.00;23.00;;;;;3.71;41.66;99220.03;5972910;29;96528;-67
2023/04/05 03:31:29;;;;;;;;;22.00;21.00;;;;;3.67;41.69;99214.16;5973025;29;96709;-66
2023/04/05 03:34:37;;;;;;;;;27.60;26.40;;;;;3.71;41.47;99217.34;5975209;29;96954;-67
2023/04/05 03:37:43;;;;;;;;;26.60;24.40;;;;;3.71;41.66;99218.19;5990963;29;96353;-67
2023/04/05 03:40:47;;;;;;;;;26.75;26.75;;;;;3.72;41.38;99211.81;5968543;29;96368;-67
2023/04/05 03:43:51;;;;;;;;;26.80;25.00;;;;;3.72;41.54;99224.31;5974161;29;96478;-66
2023/04/05 03:46:58;;;;;;;;;25.67;24.00;;;;;3.71;41.80;99214.69;5957428;29;97806;-68
2023/04/05 03:50:03;;;;;;;;;24.00;23.60;;;;;3.71;41.46;99217.34;5973071;29;96611;-68
2023/04/05 03:53:07;;;;;;;;;28.00;27.00;;;;;3.61;41.33;99203.38;5985293;29;96473;-68
2023/04/05 03:56:11;;;;;;;;;27.00;26.00;;;;;3.65;41.20;99218.03;5958830;29;99132;-68
2023/04/05 03:59:20;;;;;;;;;29.00;27.00;;;;;3.62;41.63;99221.84;5974315;29;97391;-68
2023/04/05 04:02:24;;;;;;;;;27.00;25.00;;;;;3.61;41.79;99217.53;5974662;29;98111;-69
2023/04/05 04:05:30;;;;;;;;;29.60;28.00;;;;;3.60;41.89;99212.38;5971345;29;96611;-66
2023/04/05 04:08:34;;;;;;;;;27.60;25.60;;;;;3.55;42.17;99209.38;5965727;29;97506;-66
2023/04/05 04:11:37;;;;;;;;;30.60;27.00;;;;;3.56;41.58;99214.53;5949563;29;98651;-66
2023/04/05 04:14:42;;;;;;;;;26.40;24.60;;;;;3.56;42.16;99209.22;5967962;29;97044;-66
2023/04/05 04:18:04;;;;;;;;;25.20;23.20;;;;;3.57;41.70;99218.03;5960942;29;96362;-66
2023/04/05 04:21:23;;;;;;;;;29.75;26.00;;;;;3.59;41.88;99224.84;5987221;29;96533;-65
2023/04/05 04:24:48;;;;;;;;;30.25;28.25;;;;;3.61;41.87;99224.69;5952364;29;97042;-66
2023/04/05 04:28:11;;;;;;;;;24.20;23.20;;;;;3.65;41.94;99223.34;5960098;29;96830;-66
2023/04/05 04:31:26;;;;;;;;;29.00;25.60;;;;;3.69;41.60;99224.69;5965704;29;96807;-66
2023/04/05 04:34:33;;;;;;;;;26.00;25.00;;;;;3.76;41.52;99220.34;5971890;28;96651;-63
2023/04/05 05:11:44;;;;;;;;;24.00;24.00;;;;;4.64;40.67;99221.00;5930710;29;98487;-62
2023/04/05 05:15:16;;;;;;;;;26.67;25.67;;;;;4.80;40.25;99220.88;6788522;23;98948;31
2023/04/05 05:18:20;;;;;;;;;23.60;21.60;;;;;4.92;40.11;99230.16;5977600;29;98570;-62
2023/04/05 05:21:23;;;;;;;;;26.80;24.00;;;;;5.13;39.97;99230.31;5979842;29;96613;-63
2023/04/05 05:24:31;;;;;;;;;24.40;21.80;;;;;5.38;39.20;99230.97;5978726;29;96898;-63
2023/04/05 05:27:36;;;;;;;;;24.00;22.25;;;;;5.49;38.71;99227.03;5978764;29;96608;-62
2023/04/05 05:30:39;;;;;;;;;25.75;22.00;;;;;5.78;38.16;99218.22;5961134;29;97206;-63
2023/04/05 05:33:44;;;;;;;;;25.25;23.50;;;;;6.01;37.96;99229.72;5968551;29;98515;-63
2023/04/05 05:36:47;;;;;;;;;23.75;22.75;;;;;6.15;38.03;99233.41;5974664;29;96098;-63
2023/04/05 05:39:51;;;;;;;;;24.00;24.00;;;;;6.11;37.58;99224.09;5981218;29;96331;-63
2023/04/05 05:42:56;;;;;;;;;27.00;25.60;;;;;6.32;37.40;99235.69;5981721;29;96280;-62
2023/04/05 05:46:01;;;;;;;;;23.25;21.75;;;;;6.35;37.63;99229.16;5995862;29;96293;-63
2023/04/05 05:49:05;;;;;;;;;24.25;23.25;;;;;6.45;37.37;99230.50;5981739;29;96284;-62
2023/04/05 05:52:08;;;;;;;;;28.00;26.40;;;;;6.52;37.24;99233.28;5981063;29;98346;-62
2023/04/05 05:55:11;;;;;;;;;26.80;25.80;;;;;6.60;37.30;99238.53;5982764;29;96347;-62
2023/04/05 05:58:16;;;;;;;;;27.00;27.00;;;;;6.67;36.92;99238.59;5967363;29;97174;-62
2023/04/05 06:01:21;;;;;;;;;28.40;27.40;;;;;6.80;36.49;99230.72;5983913;29;96282;-62
2023/04/05 06:04:25;;;;;;;;;29.00;28.00;;;;;7.00;36.44;99233.59;5982364;29;96644;-62
2023/04/05 06:07:28;;;;;;;;;30.60;28.60;;;;;7.02;35.99;99232.41;5983772;29;96425;-63
2023/04/05 06:10:32;;;;;;;;;29.50;26.50;;;;;7.09;36.18;99232.47;5984002;29;96291;-62
2023/04/05 06:13:36;;;;;;;;;30.40;29.40;;;;;7.19;36.14;99231.13;5969357;29;96981;-62
2023/04/05 06:16:40;;;;;;;;;32.00;28.00;;;;;7.28;35.91;99234.53;5959376;29;99009;-62
2023/04/05 06:19:43;;;;;;;;;28.40;27.00;;;;;7.38;35.51;99237.69;5959841;29;96224;-62
2023/04/05 06:22:46;;;;;;;;;33.60;30.60;;;;;7.56;35.45;99238.09;5967634;29;96294;-62
2023/04/05 06:25:50;;;;;;;;;29.67;27.67;;;;;7.67;35.14;99236.72;5966618;29;98331;-62
2023/04/05 06:28:55;;;;;;;;;27.20;26.20;;;;;7.68;35.03;99233.00;5982177;29;96426;-62
2023/04/05 06:31:58;;;;;;;;;32.00;29.00;;;;;7.79;34.36;99233.31;5978076;29;96587;-62
2023/04/05 06:35:02;;;;;;;;;30.80;29.60;;;;;7.97;34.15;99224.75;5981039;29;96817;-63
2023/04/05 06:38:05;;;;;;;;;30.00;26.50;;;;;8.21;33.79;99234.19;5960541;29;96313;-63
2023/04/05 06:41:09;;;;;;;;;32.60;30.00;;;;;8.52;33.68;99233.75;5978354;29;98429;-63
2023/04/05 06:44:14;;;;;;;;;31.40;28.60;;;;;8.83;33.13;99234.09;5981952;29;96639;-63
2023/04/05 06:47:17;;;;;;;;;30.50;28.00;;;;;9.16;32.55;99239.56;5963767;29;96395;-64
2023/04/05 06:50:21;;;;;;;;;29.75;28.75;;;;;9.41;31.99;99231.72;5978387;29;96303;-63
2023/04/05 06:53:26;;;;;;;;;26.60;24.80;;;;;9.58;31.53;99232.97;5968138;29;97241;-63
2023/04/05 06:56:29;;;;;;;;;26.80;25.20;;;;;9.79;30.89;99234.63;5971687;29;96380;-63
2023/04/05 06:59:34;;;;;;;;;23.00;22.00;;;;;9.91;30.57;99233.81;5971167;29;96289;-63
2023/04/05 07:02:37;;;;;;;;;25.80;22.40;;;;;10.16;30.51;99234.00;5980856;29;96323;-63
2023/04/05 07:05:41;;;;;;;;;17.25;15.75;;;;;10.45;29.83;99229.97;5979494;29;96120;-63
2023/04/05 07:08:45;;;;;;;;;19.00;18.40;;;;;10.73;29.64;99225.09;5980595;29;96370;-63
2023/04/05 07:11:48;;;;;;;;;18.00;17.00;;;;;11.03;28.95;99230.75;5976669;29;96376;-64
2023/04/05 07:14:53;;;;;;;;;21.00;19.00;;;;;11.24;28.21;99219.59;5984345;29;97243;-63
2023/04/05 07:17:56;;;;;;;;;21.40;19.40;;;;;11.46;28.18;99224.66;5968927;29;96868;-60
2023/04/05 07:21:00;;;;;;;;;20.00;18.67;;;;;11.63;27.91;99225.78;5984811;29;96330;-63
2023/04/05 07:24:05;;;;;;;;;15.80;14.00;;;;;11.95;27.98;99221.97;5970358;29;96703;-63
2023/04/05 07:27:08;;;;;;;;;23.00;21.00;;;;;12.17;27.71;99226.97;5982169;29;96330;-63
2023/04/05 07:30:14;;;;;;;;;21.40;19.40;;;;;12.37;27.04;99219.47;5964827;29;96544;-63
2023/04/05 07:33:17;;;;;;;;;16.50;16.25;;;;;12.55;26.11;99225.72;5976458;29;96418;-64
2023/04/05 07:36:20;;;;;;;;;22.80;21.60;;;;;12.84;26.29;99224.09;5968722;29;96222;-63
2023/04/05 07:39:24;;;;;;;;;26.80;25.60;;;;;12.99;26.11;99221.00;5968859;29;96332;-63
2023/04/05 07:42:27;;;;;;;;;16.40;16.40;;;;;13.07;23.95;99219.84;5954165;29;96207;-63
2023/04/05 07:45:33;;;;;;;;;22.75;19.00;;;;;13.33;25.25;99223.03;5952286;29;96736;-62
2023/04/05 07:48:36;;;;;;;;;23.00;21.00;;;;;13.62;25.12;99215.91;5977601;29;96288;-63
2023/04/05 07:51:41;;;;;;;;;18.00;16.60;;;;;13.86;24.59;99222.19;5979216;29;96751;-63
2023/04/05 07:54:45;;;;;;;;;19.80;18.40;;;;;13.95;23.53;99218.06;5979988;29;96953;-63
2023/04/05 07:57:48;;;;;;;;;16.80;16.00;;;;;13.72;24.26;99189.06;5971143;29;96691;-63
2023/04/05 08:00:59;;;;;;;;;19.50;17.00;;;;;14.12;23.96;99212.75;5958331;29;96316;-63
2023/04/05 08:04:03;;;;;;;;;19.50;19.00;;;;;14.13;23.72;99212.50;5970789;29;98968;-63
2023/04/05 08:07:06;;;;;;;;;24.50;23.50;;;;;14.20;24.10;99212.41;5968702;29;96306;-64
2023/04/05 08:10:11;;;;;;;;;23.40;21.40;;;;;14.39;22.95;99205.78;5978838;29;96562;-63
2023/04/05 08:13:14;;;;;;;;;27.00;25.00;;;;;14.03;23.05;99165.34;5978140;29;97086;-64
2023/04/05 08:16:19;;;;;;;;;20.00;19.00;;;;;14.71;23.53;99206.19;5969528;29;96917;-63
2023/04/05 08:19:23;;;;;;;;;18.00;17.00;;;;;15.01;22.72;99212.22;5953593;29;96479;-63
2023/04/05 08:22:28;;;;;;;;;23.40;21.00;;;;;15.46;23.04;99204.09;5968267;29;96705;-63
2023/04/05 08:25:32;;;;;;;;;19.00;18.40;;;;;15.13;22.42;99204.84;5955172;29;96837;-63
2023/04/05 08:29:06;;;;;;;;;20.00;19.00;;;;;14.62;22.67;99205.75;6257691;23;99015;31
2023/04/05 08:32:11;;;;;;;;;19.40;18.40;;;;;15.04;22.66;99200.88;5974178;29;97219;-63
2023/04/05 08:35:15;;;;;;;;;20.75;20.50;;;;;15.66;22.05;99202.81;5976653;29;96242;-63
2023/04/05 08:38:18;;;;;;;;;20.67;19.67;;;;;16.38;21.61;99190.84;5975005;29;96354;-63
2023/04/05 08:41:23;;;;;;;;;18.40;17.40;;;;;16.96;21.15;99194.84;5974908;29;96227;-63
2023/04/05 08:44:30;;;;;;;;;18.00;17.00;;;;;16.90;20.85;99193.16;5974979;29;98385;-63
2023/04/05 08:47:37;;;;;;;;;17.00;16.50;;;;;16.54;20.97;99193.75;5976380;29;96285;-63
2023/04/05 08:50:41;;;;;;;;;16.00;15.00;;;;;15.96;21.11;99190.53;5976331;29;96876;-63
2023/04/05 08:53:44;;;;;;;;;13.00;13.00;;;;;15.49;21.26;99192.72;5975032;29;97237;-63
2023/04/05 08:56:48;;;;;;;;;15.20;14.20;;;;;15.04;21.76;99194.63;5990791;29;96306;-63
2023/04/05 08:59:53;;;;;;;;;14.00;13.40;;;;;14.53;22.52;99185.47;5952212;29;97043;-66
2023/04/05 09:03:01;;;;;;;;;15.00;14.25;;;;;14.03;23.18;99189.75;5931893;29;96448;-66
2023/04/05 09:06:10;;;;;;;;;15.00;12.00;;;;;13.83;23.85;99187.41;5929907;29;96406;-66
2023/04/05 09:09:14;;;;;;;;;15.40;14.40;;;;;13.66;23.73;99186.47;5927669;29;98620;-64
2023/04/05 09:12:21;;;;;;;;;17.00;15.00;;;;;14.21;24.00;99190.47;5928249;29;97590;-65
2023/04/05 09:15:25;;;;;;;;;15.00;14.40;;;;;14.28;23.24;99188.44;5944029;29;97165;-66
2023/04/05 09:18:30;;;;;;;;;17.00;15.00;;;;;14.32;22.73;99191.50;5929112;29;96790;-65
2023/04/05 09:21:58;;;;;;;;;13.75;13.75;;;;;14.17;23.72;99191.19;5929999;29;96372;-65
2023/04/05 09:25:01;;;;;;;;;19.00;17.00;;;;;13.91;24.41;99187.06;5953061;29;96477;-65
2023/04/05 09:28:05;;;;;;;;;19.00;19.00;;;;;13.45;24.58;99188.66;5938800;29;96719;-66
2023/04/05 09:31:08;;;;;;;;;20.00;17.50;;;;;13.06;25.31;99191.13;5951084;29;96890;-66
2023/04/05 09:34:20;;;;;;;;;19.00;18.00;;;;;12.81;25.74;99199.38;5951598;29;96347;-65
2023/04/05 09:37:24;;;;;;;;;19.00;16.80;;;;;12.59;25.59;99194.47;5935963;29;96667;-65
2023/04/05 09:40:42;;;;;;;;;16.00;15.00;;;;;12.40;25.74;99192.00;5934255;29;98474;-65
2023/04/05 09:43:45;;;;;;;;;19.00;18.60;;;;;12.19;25.73;99187.03;5951551;29;98143;-66
2023/04/05 09:46:49;;;;;;;;;18.50;16.50;;;;;12.07;25.89;99189.66;5952364;29;96200;-65
2023/04/05 09:49:54;;;;;;;;;20.40;19.40;;;;;12.04;25.99;99185.50;5951438;29;98569;-65
2023/04/05 09:53:09;;;;;;;;;18.00;16.00;;;;;12.03;26.09;99186.56;5952216;29;96390;-65
2023/04/05 09:56:13;;;;;;;;;14.50;14.00;;;;;12.30;26.03;99194.41;5966232;29;96347;-65
2023/04/05 09:59:17;;;;;;;;;17.80;15.80;;;;;12.75;25.12;99186.78;5966155;29;96256;-66
2023/04/05 10:02:22;;;;;;;;;16.00;15.40;;;;;13.44;24.61;99173.47;5954861;29;96308;-66
2023/04/05 10:05:28;;;;;;;;;13.00;12.00;;;;;13.94;23.50;99164.06;5928559;29;96428;-66
2023/04/05 10:08:31;;;;;;;;;14.50;13.00;;;;;14.30;22.34;99171.94;5950315;29;96727;-66
2023/04/05 10:11:35;;;;;;;;;15.50;14.50;;;;;14.48;22.63;99162.84;5951049;29;96926;-66
2023/04/05 10:14:40;;;;;;;;;18.00;17.00;;;;;14.60;23.36;99169.91;5951381;29;96419;-66
2023/04/05 10:17:48;;;;;;;;;14.40;13.40;;;;;14.63;23.34;99165.88;5951483;29;96330;-66
2023/04/05 10:20:58;;;;;;;;;14.00;12.25;;;;;14.69;22.69;99171.16;5964121;29;96480;-66
2023/04/05 10:24:10;;;;;;;;;14.00;14.00;;;;;14.63;23.00;99172.13;5954848;29;96346;-66
2023/04/05 10:27:21;;;;;;;;;16.00;15.00;;;;;14.67;22.90;99167.03;5963512;29;96700;-66
2023/04/05 10:30:30;;;;;;;;;15.00;14.00;;;;;14.82;22.88;99166.50;5954251;29;96757;-66
2023/04/05 10:33:39;;;;;;;;;11.00;9.60;;;;;14.73;21.76;99155.22;5967242;29;96662;-65
2023/04/05 10:36:50;;;;;;;;;9.00;9.00;;;;;15.22;22.95;99161.81;5954899;29;96671;-66
2023/04/05 10:40:00;;;;;;;;;12.00;12.00;;;;;15.17;21.32;99150.88;5955416;29;96356;-65
2023/04/05 10:43:07;;;;;;;;;12.80;11.80;;;;;15.00;22.48;99155.47;5954421;29;96285;-65
2023/04/05 10:46:11;;;;;;;;;11.00;10.00;;;;;14.85;22.55;99147.84;5954426;29;96345;-66
2023/04/05 10:49:22;;;;;;;;;13.60;12.60;;;;;14.55;22.90;99153.50;5952836;29;96393;-65
2023/04/05 10:52:28;;;;;;;;;14.25;13.50;;;;;14.22;23.25;99148.72;5969064;29;96901;-65
2023/04/05 10:55:32;;;;;;;;;12.33;11.33;;;;;14.00;23.38;99149.56;5955198;29;96284;-66
2023/04/05 10:58:38;;;;;;;;;12.40;11.00;;;;;13.67;23.71;99148.31;5953792;29;96290;-65
2023/04/05 11:01:43;;;;;;;;;15.50;14.50;;;;;13.49;24.68;99148.38;5952136;29;98486;-65
2023/04/05 11:04:46;;;;;;;;;11.00;10.00;;;;;13.40;24.62;99150.63;5965211;29;96936;-64
2023/04/05 11:07:55;;;;;;;;;14.00;13.00;;;;;13.31;25.00;99153.91;5951086;29;96543;-65
2023/04/05 11:10:59;;;;;;;;;15.00;13.00;;;;;13.05;25.06;99128.03;5953299;29;96289;-65
2023/04/05 11:14:17;;;;;;;;;18.75;17.75;;;;;13.02;25.30;99156.41;5952287;29;96979;-65
2023/04/05 11:17:25;;;;;;;;;19.50;18.00;;;;;12.94;25.95;99148.63;5961491;29;98904;-65
2023/04/05 11:20:41;;;;;;;;;19.00;17.00;;;;;12.88;26.40;99154.94;5951181;29;96591;-64
2023/04/05 11:27:12;;;;;;;;;19.00;18.00;;;;;12.70;26.72;99154.16;6362632;27;96642;-65
2023/04/05 11:30:48;;;;;;;;;18.00;18.00;;;;;12.51;26.24;99158.78;6314884;27;96425;-65
2023/04/05 11:33:57;;;;;;;;;18.50;17.00;;;;;12.38;25.94;99146.25;6307723;27;96416;-65
2023/04/05 11:37:00;;;;;;;;;18.00;17.00;;;;;12.51;26.17;99153.38;6310367;27;96267;-65
2023/04/05 11:40:25;;;;;;;;;16.20;16.00;;;;;12.58;26.48;99154.09;6309372;27;98593;-64
2023/04/05 11:43:33;;;;;;;;;13.25;13.25;;;;;12.74;25.78;99156.19;6299353;27;97605;-65
2023/04/05 11:46:36;;;;;;;;;14.60;14.00;;;;;13.22;25.01;99147.19;6308152;27;96968;-65
2023/04/05 11:49:41;;;;;;;;;18.00;17.00;;;;;14.24;24.79;99140.34;6303975;27;96405;-65
2023/04/05 11:52:45;;;;;;;;;18.00;18.00;;;;;15.26;22.61;99134.97;6297572;27;96759;-65
2023/04/05 11:55:50;;;;;;;;;15.00;14.00;;;;;16.25;20.92;99141.41;6308422;27;97520;-65
2023/04/05 11:58:58;;;;;;;;;14.00;13.60;;;;;17.09;20.49;99137.25;6290063;27;98545;-64
2023/04/05 12:02:03;;;;;;;;;13.40;13.00;;;;;17.41;20.50;99128.25;6315033;27;96540;-65
2023/04/05 12:05:06;;;;;;;;;14.00;12.60;;;;;18.00;19.99;99126.25;6305561;27;96717;-65
2023/04/05 12:08:10;;;;;;;;;14.60;12.60;;;;;18.21;19.23;99128.00;6308212;27;96300;-65
2023/04/05 12:11:13;;;;;;;;;12.80;11.60;;;;;18.07;19.91;99129.56;6291517;27;96657;-66
2023/04/05 12:14:18;;;;;;;;;14.20;14.00;;;;;17.64;19.82;99136.13;6308654;27;96683;-63
2023/04/05 12:17:37;;;;;;;;;15.40;13.00;;;;;17.00;19.91;99127.91;6308726;27;96633;-64
2023/04/05 12:20:41;;;;;;;;;15.00;14.00;;;;;16.53;19.72;99133.06;6308726;27;96222;-63
2023/04/05 12:23:45;;;;;;;;;18.80;16.80;;;;;16.05;21.37;99125.66;6290338;27;96702;-64
2023/04/05 12:26:48;;;;;;;;;19.80;18.80;;;;;15.70;22.40;99133.28;6214842;27;97019;-64
2023/04/05 12:30:07;;;;;;;;;21.40;21.40;;;;;15.39;22.89;99135.50;6252832;27;98366;-60
2023/04/05 12:33:11;;;;;;;;;17.00;16.00;;;;;15.15;22.95;99125.84;6265559;27;98427;-61
2023/04/05 12:36:14;;;;;;;;;20.75;19.00;;;;;15.44;22.67;99129.34;6197095;28;96389;-61
2023/04/05 12:39:18;;;;;;;;;21.40;18.40;;;;;15.50;22.94;99123.72;6185788;28;96456;-61
2023/04/05 12:42:22;;;;;;;;;18.50;17.00;;;;;15.87;22.92;99117.78;6254290;27;96719;-60
2023/04/05 12:45:28;;;;;;;;;18.20;16.60;;;;;15.88;22.50;99124.88;6187658;28;96059;-60
2023/04/05 12:48:31;;;;;;;;;14.60;13.00;;;;;16.13;22.56;99119.75;6187916;28;96360;-61
2023/04/05 12:51:35;;;;;;;;;19.00;17.00;;;;;16.24;22.01;99116.09;6253158;27;98430;-60
2023/04/05 12:54:38;;;;;;;;;20.60;19.00;;;;;16.03;21.92;99120.44;6255581;27;97041;-60
2023/04/05 12:57:42;;;;;;;;;18.00;18.00;;;;;15.80;22.59;99122.56;6187994;28;96312;-61
2023/04/05 13:00:47;;;;;;;;;16.20;16.20;;;;;15.58;22.49;99117.09;6252441;27;96702;-62
2023/04/05 13:03:51;;;;;;;;;16.40;15.60;;;;;15.32;22.60;99115.81;6254129;27;97537;-61
2023/04/05 13:07:06;;;;;;;;;17.80;16.40;;;;;15.13;22.35;99120.66;6186934;27;96327;-61
2023/04/05 13:10:11;;;;;;;;;16.00;15.40;;;;;15.03;22.46;99115.06;6186957;28;96850;-61
2023/04/05 13:13:15;;;;;;;;;17.40;16.00;;;;;14.89;22.68;99121.88;6253857;27;96665;-61
2023/04/05 13:16:19;;;;;;;;;13.25;12.00;;;;;14.64;23.12;99110.53;6186316;28;96404;-62
2023/04/05 13:19:23;;;;;;;;;15.00;14.60;;;;;14.37;22.40;99121.13;6185980;28;96424;-61
2023/04/05 13:22:26;;;;;;;;;15.00;14.80;;;;;14.12;22.50;99107.03;6186111;28;96878;-62
2023/04/05 13:25:30;;;;;;;;;17.00;15.20;;;;;14.21;22.74;99116.44;6252817;27;99124;-61
2023/04/05 13:28:34;;;;;;;;;18.60;16.00;;;;;14.18;22.33;99106.03;6186380;28;96879;-61
2023/04/05 13:31:39;;;;;;;;;17.60;17.60;;;;;14.22;22.94;99124.31;6248232;27;97258;-61
2023/04/05 13:34:43;;;;;;;;;17.00;16.00;;;;;14.12;22.97;99113.25;6180736;28;96497;-61
2023/04/05 13:37:46;;;;;;;;;18.80;16.00;;;;;14.01;23.32;99116.81;6185828;28;96289;-61
2023/04/05 13:40:49;;;;;;;;;19.00;18.00;;;;;13.86;23.68;99122.72;6178026;28;98405;-61
2023/04/05 13:43:53;;;;;;;;;19.60;18.00;;;;;13.69;23.81;99116.34;6185778;28;96587;-60
2023/04/05 13:46:57;;;;;;;;;18.00;18.00;;;;;13.57;23.76;99118.25;6253651;27;96220;-61
2023/04/05 13:50:01;;;;;;;;;22.80;21.20;;;;;13.48;24.02;99119.69;6236172;27;96714;-60
2023/04/05 13:53:05;;;;;;;;;21.20;18.00;;;;;13.39;23.70;99116.47;6187224;28;96477;-61
2023/04/05 13:56:08;;;;;;;;;19.00;18.00;;;;;13.24;23.68;99121.50;6187308;28;96231;-61
2023/04/05 13:59:15;;;;;;;;;19.40;19.00;;;;;12.97;23.91;99121.09;6255757;27;96249;-60
2023/04/05 14:02:24;;;;;;;;;23.60;21.60;;;;;12.72;24.68;99104.19;6222950;27;96338;-61
2023/04/05 14:05:28;;;;;;;;;18.40;17.00;;;;;12.87;24.67;99120.00;6257772;27;96386;-60
2023/04/05 14:08:31;;;;;;;;;21.67;20.67;;;;;12.87;24.28;99112.69;6201500;27;96442;-61
2023/04/05 14:11:35;;;;;;;;;19.20;19.20;;;;;13.19;23.94;99107.03;6189268;27;96995;-61
2023/04/05 14:14:38;;;;;;;;;20.40;19.40;;;;;13.71;24.19;99116.97;6191521;27;96829;-61
2023/04/05 14:17:43;;;;;;;;;21.00;20.00;;;;;13.96;23.25;99114.00;6253258;27;96571;-61
2023/04/05 14:20:46;;;;;;;;;20.80;19.00;;;;;14.08;22.97;99119.38;6312535;27;96856;-60
2023/04/05 14:23:53;;;;;;;;;19.00;19.00;;;;;14.07;22.48;99105.03;6229637;27;96832;-61
2023/04/05 14:26:56;;;;;;;;;20.00;18.75;;;;;13.98;22.38;99106.44;6226515;27;98677;-61
2023/04/05 14:30:00;;;;;;;;;20.60;19.00;;;;;13.81;22.57;99111.78;6186353;27;96837;-61
2023/04/05 14:33:06;;;;;;;;;15.60;15.60;;;;;13.75;23.22;99110.00;6190118;27;96718;-61
2023/04/05 14:36:09;;;;;;;;;22.00;20.00;;;;;13.54;23.75;99093.50;6267427;27;96874;-61
2023/04/05 14:39:12;;;;;;;;;19.80;18.40;;;;;13.49;24.28;99113.19;6269973;27;98429;-61
2023/04/05 14:42:16;;;;;;;;;20.75;17.75;;;;;13.33;24.83;99103.06;6256816;27;96323;-61
2023/04/05 14:45:19;;;;;;;;;18.00;17.00;;;;;13.10;24.36;99114.63;6265098;27;96365;-61
2023/04/05 14:48:24;;;;;;;;;18.00;17.00;;;;;13.09;25.00;99114.88;6223110;27;96225;-61
2023/04/05 14:51:27;;;;;;;;;18.00;17.00;;;;;13.15;24.19;99105.84;6220007;27;96202;-61
2023/04/05 14:54:31;;;;;;;;;17.00;16.00;;;;;13.13;24.39;99107.97;6209906;27;96799;-61
2023/04/05 14:57:34;;;;;;;;;19.00;19.00;;;;;12.93;24.50;99108.25;6223848;27;98308;-61